sensor_id;sensor_type;location;lat;lon;timestamp;P1;durP1;ratioP1;P2;durP2;ratioP2
17935;SDS011;9093;52.062;4.508;2023-08-06T00:00:50;5.53;;;3.10;;
17935;SDS011;9093;52.062;4.508;2023-08-06T00:03:30;6.60;;;3.47;;
17935;SDS011;9093;52.062;4.508;2023-08-06T00:06:10;5.85;;;3.40;;
17935;SDS011;9093;52.062;4.508;2023-08-06T00:08:51;5.55;;;3.22;;
17935;SDS011;9093;52.062;4.508;2023-08-06T00:11:31;6.30;;;3.00;;
17935;SDS011;9093;52.062;4.508;2023-08-06T00:14:12;5.53;;;3.22;;
17935;SDS011;9093;52.062;4.508;2023-08-06T00:16:55;4.53;;;3.10;;
17935;SDS011;9093;52.062;4.508;2023-08-06T00:19:35;5.28;;;3.00;;
17935;SDS011;9093;52.062;4.508;2023-08-06T00:22:15;6.22;;;3.17;;
17935;SDS011;9093;52.062;4.508;2023-08-06T00:24:56;6.65;;;3.50;;
17935;SDS011;9093;52.062;4.508;2023-08-06T00:27:37;5.57;;;2.90;;
17935;SDS011;9093;52.062;4.508;2023-08-06T00:30:18;4.82;;;3.33;;
17935;SDS011;9093;52.062;4.508;2023-08-06T00:32:58;5.32;;;3.38;;
17935;SDS011;9093;52.062;4.508;2023-08-06T00:35:38;7.95;;;3.28;;
17935;SDS011;9093;52.062;4.508;2023-08-06T00:38:19;5.82;;;3.20;;
17935;SDS011;9093;52.062;4.508;2023-08-06T00:40:59;5.35;;;3.20;;
17935;SDS011;9093;52.062;4.508;2023-08-06T00:43:39;5.32;;;3.15;;
17935;SDS011;9093;52.062;4.508;2023-08-06T00:46:20;6.35;;;3.58;;
17935;SDS011;9093;52.062;4.508;2023-08-06T00:49:01;5.18;;;3.03;;
17935;SDS011;9093;52.062;4.508;2023-08-06T00:51:41;5.85;;;3.33;;
17935;SDS011;9093;52.062;4.508;2023-08-06T00:54:23;6.80;;;3.25;;
17935;SDS011;9093;52.062;4.508;2023-08-06T00:57:04;7.60;;;4.03;;
17935;SDS011;9093;52.062;4.508;2023-08-06T00:59:48;5.25;;;3.03;;
17935;SDS011;9093;52.062;4.508;2023-08-06T01:02:29;7.22;;;3.30;;
17935;SDS011;9093;52.062;4.508;2023-08-06T01:05:09;10.65;;;3.42;;
17935;SDS011;9093;52.062;4.508;2023-08-06T01:08:05;6.55;;;3.22;;
17935;SDS011;9093;52.062;4.508;2023-08-06T01:11:00;12.23;;;3.75;;
17935;SDS011;9093;52.062;4.508;2023-08-06T01:14:08;5.32;;;2.97;;
17935;SDS011;9093;52.062;4.508;2023-08-06T01:16:51;6.55;;;3.00;;
17935;SDS011;9093;52.062;4.508;2023-08-06T01:19:33;8.68;;;3.45;;
17935;SDS011;9093;52.062;4.508;2023-08-06T01:22:13;5.50;;;3.28;;
17935;SDS011;9093;52.062;4.508;2023-08-06T01:24:54;5.93;;;2.92;;
17935;SDS011;9093;52.062;4.508;2023-08-06T01:30:28;5.80;;;3.00;;
17935;SDS011;9093;52.062;4.508;2023-08-06T01:33:16;4.65;;;2.78;;
17935;SDS011;9093;52.062;4.508;2023-08-06T01:36:01;8.23;;;3.63;;
17935;SDS011;9093;52.062;4.508;2023-08-06T01:38:43;7.07;;;2.83;;
17935;SDS011;9093;52.062;4.508;2023-08-06T01:41:24;7.68;;;2.53;;
17935;SDS011;9093;52.062;4.508;2023-08-06T01:44:05;6.07;;;2.85;;
17935;SDS011;9093;52.062;4.508;2023-08-06T01:46:46;5.72;;;2.97;;
17935;SDS011;9093;52.062;4.508;2023-08-06T01:49:26;4.90;;;3.17;;
17935;SDS011;9093;52.062;4.508;2023-08-06T01:52:06;6.80;;;3.15;;
17935;SDS011;9093;52.062;4.508;2023-08-06T01:54:47;4.78;;;3.03;;
17935;SDS011;9093;52.062;4.508;2023-08-06T01:57:28;10.45;;;3.03;;
17935;SDS011;9093;52.062;4.508;2023-08-06T02:00:08;8.07;;;2.58;;
17935;SDS011;9093;52.062;4.508;2023-08-06T02:02:49;3.85;;;2.10;;
17935;SDS011;9093;52.062;4.508;2023-08-06T02:05:29;4.63;;;2.78;;
17935;SDS011;9093;52.062;4.508;2023-08-06T02:08:09;3.72;;;2.13;;
17935;SDS011;9093;52.062;4.508;2023-08-06T02:10:50;4.72;;;2.50;;
17935;SDS011;9093;52.062;4.508;2023-08-06T02:13:30;4.88;;;2.85;;
17935;SDS011;9093;52.062;4.508;2023-08-06T02:16:11;4.72;;;2.47;;
17935;SDS011;9093;52.062;4.508;2023-08-06T02:18:51;4.38;;;2.55;;
17935;SDS011;9093;52.062;4.508;2023-08-06T02:21:31;5.43;;;2.25;;
17935;SDS011;9093;52.062;4.508;2023-08-06T02:24:11;4.28;;;2.63;;
17935;SDS011;9093;52.062;4.508;2023-08-06T02:26:52;4.80;;;2.83;;
17935;SDS011;9093;52.062;4.508;2023-08-06T02:29:35;3.53;;;2.17;;
17935;SDS011;9093;52.062;4.508;2023-08-06T02:32:15;4.80;;;1.95;;
17935;SDS011;9093;52.062;4.508;2023-08-06T02:34:56;6.70;;;2.05;;
17935;SDS011;9093;52.062;4.508;2023-08-06T02:37:36;4.60;;;2.00;;
17935;SDS011;9093;52.062;4.508;2023-08-06T02:40:16;2.97;;;1.92;;
17935;SDS011;9093;52.062;4.508;2023-08-06T02:42:56;2.72;;;2.05;;
17935;SDS011;9093;52.062;4.508;2023-08-06T02:45:37;3.47;;;1.88;;
17935;SDS011;9093;52.062;4.508;2023-08-06T02:48:17;11.55;;;1.80;;
17935;SDS011;9093;52.062;4.508;2023-08-06T02:50:58;8.20;;;1.90;;
17935;SDS011;9093;52.062;4.508;2023-08-06T02:53:39;5.72;;;1.73;;
17935;SDS011;9093;52.062;4.508;2023-08-06T02:56:19;2.20;;;1.50;;
17935;SDS011;9093;52.062;4.508;2023-08-06T02:59:00;1.33;;;1.10;;
17935;SDS011;9093;52.062;4.508;2023-08-06T03:01:40;6.25;;;1.17;;
17935;SDS011;9093;52.062;4.508;2023-08-06T03:04:20;1.90;;;1.10;;
17935;SDS011;9093;52.062;4.508;2023-08-06T03:07:01;3.15;;;1.00;;
17935;SDS011;9093;52.062;4.508;2023-08-06T03:09:41;2.35;;;0.90;;
17935;SDS011;9093;52.062;4.508;2023-08-06T03:12:21;1.00;;;0.60;;
17935;SDS011;9093;52.062;4.508;2023-08-06T03:15:02;5.03;;;1.02;;
17935;SDS011;9093;52.062;4.508;2023-08-06T03:17:42;1.13;;;0.80;;
17935;SDS011;9093;52.062;4.508;2023-08-06T03:20:24;1.50;;;0.60;;
17935;SDS011;9093;52.062;4.508;2023-08-06T03:23:05;1.25;;;0.95;;
17935;SDS011;9093;52.062;4.508;2023-08-06T03:25:45;3.55;;;1.10;;
17935;SDS011;9093;52.062;4.508;2023-08-06T03:28:26;2.05;;;1.20;;
17935;SDS011;9093;52.062;4.508;2023-08-06T03:31:07;3.35;;;1.73;;
17935;SDS011;9093;52.062;4.508;2023-08-06T03:33:47;2.92;;;2.08;;
17935;SDS011;9093;52.062;4.508;2023-08-06T03:36:28;4.00;;;2.42;;
17935;SDS011;9093;52.062;4.508;2023-08-06T03:39:08;4.85;;;2.30;;
17935;SDS011;9093;52.062;4.508;2023-08-06T03:41:48;3.53;;;2.65;;
17935;SDS011;9093;52.062;4.508;2023-08-06T03:44:29;5.32;;;2.42;;
17935;SDS011;9093;52.062;4.508;2023-08-06T03:47:09;19.67;;;3.92;;
17935;SDS011;9093;52.062;4.508;2023-08-06T03:49:49;8.65;;;3.42;;
17935;SDS011;9093;52.062;4.508;2023-08-06T03:52:30;4.35;;;2.33;;
17935;SDS011;9093;52.062;4.508;2023-08-06T03:55:10;3.65;;;2.00;;
17935;SDS011;9093;52.062;4.508;2023-08-06T03:57:50;6.80;;;2.05;;
17935;SDS011;9093;52.062;4.508;2023-08-06T04:00:31;4.80;;;1.55;;
17935;SDS011;9093;52.062;4.508;2023-08-06T04:03:11;5.32;;;1.20;;
17935;SDS011;9093;52.062;4.508;2023-08-06T04:05:51;4.45;;;1.48;;
17935;SDS011;9093;52.062;4.508;2023-08-06T04:08:31;2.92;;;1.42;;
17935;SDS011;9093;52.062;4.508;2023-08-06T04:11:12;1.50;;;1.20;;
17935;SDS011;9093;52.062;4.508;2023-08-06T04:13:53;5.72;;;1.40;;
17935;SDS011;9093;52.062;4.508;2023-08-06T04:16:35;2.25;;;1.10;;
17935;SDS011;9093;52.062;4.508;2023-08-06T04:19:15;2.72;;;1.40;;
17935;SDS011;9093;52.062;4.508;2023-08-06T04:21:55;5.45;;;1.63;;
17935;SDS011;9093;52.062;4.508;2023-08-06T04:24:35;2.40;;;1.50;;
17935;SDS011;9093;52.062;4.508;2023-08-06T04:27:16;3.00;;;1.55;;
17935;SDS011;9093;52.062;4.508;2023-08-06T04:30:00;2.47;;;1.42;;
17935;SDS011;9093;52.062;4.508;2023-08-06T04:32:40;2.72;;;1.60;;
17935;SDS011;9093;52.062;4.508;2023-08-06T04:35:20;5.25;;;1.58;;
17935;SDS011;9093;52.062;4.508;2023-08-06T04:38:01;2.33;;;1.27;;
17935;SDS011;9093;52.062;4.508;2023-08-06T04:40:41;5.68;;;1.60;;
17935;SDS011;9093;52.062;4.508;2023-08-06T04:43:22;8.18;;;1.77;;
17935;SDS011;9093;52.062;4.508;2023-08-06T04:46:02;3.35;;;1.67;;
17935;SDS011;9093;52.062;4.508;2023-08-06T04:48:42;6.38;;;1.70;;
17935;SDS011;9093;52.062;4.508;2023-08-06T04:51:23;4.00;;;1.77;;
17935;SDS011;9093;52.062;4.508;2023-08-06T04:54:03;6.88;;;1.63;;
17935;SDS011;9093;52.062;4.508;2023-08-06T04:56:43;5.07;;;1.70;;
17935;SDS011;9093;52.062;4.508;2023-08-06T04:59:23;3.38;;;1.40;;
17935;SDS011;9093;52.062;4.508;2023-08-06T05:02:04;4.55;;;1.67;;
17935;SDS011;9093;52.062;4.508;2023-08-06T05:04:50;2.75;;;1.67;;
17935;SDS011;9093;52.062;4.508;2023-08-06T05:07:30;2.55;;;1.70;;
17935;SDS011;9093;52.062;4.508;2023-08-06T05:10:11;3.85;;;1.88;;
17935;SDS011;9093;52.062;4.508;2023-08-06T05:12:51;6.03;;;2.03;;
17935;SDS011;9093;52.062;4.508;2023-08-06T05:15:34;2.35;;;1.63;;
17935;SDS011;9093;52.062;4.508;2023-08-06T05:18:14;2.33;;;1.50;;
17935;SDS011;9093;52.062;4.508;2023-08-06T05:20:54;4.40;;;1.92;;
17935;SDS011;9093;52.062;4.508;2023-08-06T05:23:35;4.80;;;1.92;;
17935;SDS011;9093;52.062;4.508;2023-08-06T05:26:15;2.13;;;1.60;;
17935;SDS011;9093;52.062;4.508;2023-08-06T05:28:58;6.47;;;1.70;;
17935;SDS011;9093;52.062;4.508;2023-08-06T05:31:38;2.92;;;1.95;;
17935;SDS011;9093;52.062;4.508;2023-08-06T05:34:19;5.22;;;2.67;;
17935;SDS011;9093;52.062;4.508;2023-08-06T05:36:59;5.18;;;2.10;;
17935;SDS011;9093;52.062;4.508;2023-08-06T05:39:39;3.78;;;1.98;;
17935;SDS011;9093;52.062;4.508;2023-08-06T05:42:20;3.08;;;1.50;;
17935;SDS011;9093;52.062;4.508;2023-08-06T05:45:00;10.00;;;1.67;;
17935;SDS011;9093;52.062;4.508;2023-08-06T05:47:40;5.82;;;1.83;;
17935;SDS011;9093;52.062;4.508;2023-08-06T05:50:21;5.97;;;1.73;;
17935;SDS011;9093;52.062;4.508;2023-08-06T05:53:01;2.63;;;1.65;;
17935;SDS011;9093;52.062;4.508;2023-08-06T05:55:41;5.47;;;1.83;;
17935;SDS011;9093;52.062;4.508;2023-08-06T05:58:22;5.13;;;1.60;;
17935;SDS011;9093;52.062;4.508;2023-08-06T06:01:04;4.07;;;1.43;;
17935;SDS011;9093;52.062;4.508;2023-08-06T06:03:44;7.20;;;1.83;;
17935;SDS011;9093;52.062;4.508;2023-08-06T06:06:24;3.88;;;1.60;;
17935;SDS011;9093;52.062;4.508;2023-08-06T06:09:05;4.60;;;1.33;;
17935;SDS011;9093;52.062;4.508;2023-08-06T06:11:45;1.80;;;1.00;;
17935;SDS011;9093;52.062;4.508;2023-08-06T06:14:25;2.03;;;1.17;;
17935;SDS011;9093;52.062;4.508;2023-08-06T06:17:06;1.70;;;0.90;;
17935;SDS011;9093;52.062;4.508;2023-08-06T06:19:46;2.33;;;1.05;;
17935;SDS011;9093;52.062;4.508;2023-08-06T06:22:26;1.95;;;1.08;;
17935;SDS011;9093;52.062;4.508;2023-08-06T06:25:07;4.67;;;0.87;;
17935;SDS011;9093;52.062;4.508;2023-08-06T06:27:47;1.65;;;0.60;;
17935;SDS011;9093;52.062;4.508;2023-08-06T06:30:27;1.35;;;0.77;;
17935;SDS011;9093;52.062;4.508;2023-08-06T06:33:08;1.30;;;0.60;;
17935;SDS011;9093;52.062;4.508;2023-08-06T06:35:48;2.85;;;0.70;;
17935;SDS011;9093;52.062;4.508;2023-08-06T06:38:29;1.42;;;0.65;;
17935;SDS011;9093;52.062;4.508;2023-08-06T06:41:09;1.52;;;0.70;;
17935;SDS011;9093;52.062;4.508;2023-08-06T06:43:49;3.20;;;0.70;;
17935;SDS011;9093;52.062;4.508;2023-08-06T06:46:30;19.60;;;1.60;;
17935;SDS011;9093;52.062;4.508;2023-08-06T06:49:10;2.40;;;0.63;;
17935;SDS011;9093;52.062;4.508;2023-08-06T06:51:50;1.13;;;0.65;;
17935;SDS011;9093;52.062;4.508;2023-08-06T06:54:31;1.38;;;0.88;;
17935;SDS011;9093;52.062;4.508;2023-08-06T06:57:11;1.30;;;0.80;;
17935;SDS011;9093;52.062;4.508;2023-08-06T06:59:51;1.63;;;0.80;;
17935;SDS011;9093;52.062;4.508;2023-08-06T07:02:31;1.40;;;0.63;;
17935;SDS011;9093;52.062;4.508;2023-08-06T07:05:12;3.15;;;0.82;;
17935;SDS011;9093;52.062;4.508;2023-08-06T07:07:52;3.55;;;0.77;;
17935;SDS011;9093;52.062;4.508;2023-08-06T07:10:32;1.20;;;0.70;;
17935;SDS011;9093;52.062;4.508;2023-08-06T07:13:13;1.15;;;0.70;;
17935;SDS011;9093;52.062;4.508;2023-08-06T07:15:54;1.13;;;0.70;;
17935;SDS011;9093;52.062;4.508;2023-08-06T07:18:34;5.07;;;0.88;;
17935;SDS011;9093;52.062;4.508;2023-08-06T07:21:15;1.40;;;1.00;;
17935;SDS011;9093;52.062;4.508;2023-08-06T07:23:55;4.53;;;0.80;;
17935;SDS011;9093;52.062;4.508;2023-08-06T07:26:36;3.53;;;1.00;;
17935;SDS011;9093;52.062;4.508;2023-08-06T07:29:16;1.77;;;1.00;;
17935;SDS011;9093;52.062;4.508;2023-08-06T07:32:01;2.42;;;1.00;;
17935;SDS011;9093;52.062;4.508;2023-08-06T07:34:41;7.97;;;0.93;;
17935;SDS011;9093;52.062;4.508;2023-08-06T07:37:22;4.32;;;0.95;;
17935;SDS011;9093;52.062;4.508;2023-08-06T07:40:03;1.10;;;0.80;;
17935;SDS011;9093;52.062;4.508;2023-08-06T07:42:44;1.48;;;0.90;;
17935;SDS011;9093;52.062;4.508;2023-08-06T07:45:24;2.65;;;1.30;;
17935;SDS011;9093;52.062;4.508;2023-08-06T07:48:06;1.48;;;0.80;;
17935;SDS011;9093;52.062;4.508;2023-08-06T07:50:50;2.15;;;1.00;;
17935;SDS011;9093;52.062;4.508;2023-08-06T07:53:33;3.92;;;1.20;;
17935;SDS011;9093;52.062;4.508;2023-08-06T07:56:13;3.88;;;1.10;;
17935;SDS011;9093;52.062;4.508;2023-08-06T07:58:53;1.88;;;0.80;;
17935;SDS011;9093;52.062;4.508;2023-08-06T08:01:34;1.55;;;0.82;;
17935;SDS011;9093;52.062;4.508;2023-08-06T08:04:14;2.03;;;1.05;;
17935;SDS011;9093;52.062;4.508;2023-08-06T08:06:55;2.17;;;0.80;;
17935;SDS011;9093;52.062;4.508;2023-08-06T08:09:35;2.05;;;0.93;;
17935;SDS011;9093;52.062;4.508;2023-08-06T08:12:16;3.13;;;1.30;;
17935;SDS011;9093;52.062;4.508;2023-08-06T08:14:56;1.60;;;1.00;;
17935;SDS011;9093;52.062;4.508;2023-08-06T08:17:36;3.13;;;1.07;;
17935;SDS011;9093;52.062;4.508;2023-08-06T08:20:17;2.47;;;1.08;;
17935;SDS011;9093;52.062;4.508;2023-08-06T08:23:01;3.55;;;1.25;;
17935;SDS011;9093;52.062;4.508;2023-08-06T08:25:42;3.63;;;1.10;;
17935;SDS011;9093;52.062;4.508;2023-08-06T08:28:22;2.92;;;1.00;;
17935;SDS011;9093;52.062;4.508;2023-08-06T08:31:02;1.40;;;0.90;;
17935;SDS011;9093;52.062;4.508;2023-08-06T08:33:43;4.35;;;1.17;;
17935;SDS011;9093;52.062;4.508;2023-08-06T08:36:23;3.25;;;1.20;;
17935;SDS011;9093;52.062;4.508;2023-08-06T08:39:03;3.33;;;0.77;;
17935;SDS011;9093;52.062;4.508;2023-08-06T08:41:45;4.82;;;1.40;;
17935;SDS011;9093;52.062;4.508;2023-08-06T08:44:25;1.27;;;0.98;;
17935;SDS011;9093;52.062;4.508;2023-08-06T08:49:52;6.72;;;1.33;;
17935;SDS011;9093;52.062;4.508;2023-08-06T08:52:35;2.85;;;1.10;;
17935;SDS011;9093;52.062;4.508;2023-08-06T08:55:16;2.20;;;1.10;;
17935;SDS011;9093;52.062;4.508;2023-08-06T08:57:56;3.03;;;0.95;;
17935;SDS011;9093;52.062;4.508;2023-08-06T09:00:37;1.40;;;0.88;;
17935;SDS011;9093;52.062;4.508;2023-08-06T09:03:17;1.92;;;1.45;;
17935;SDS011;9093;52.062;4.508;2023-08-06T09:05:58;5.88;;;1.15;;
17935;SDS011;9093;52.062;4.508;2023-08-06T09:08:46;3.38;;;1.13;;
17935;SDS011;9093;52.062;4.508;2023-08-06T09:11:45;4.43;;;1.42;;
17935;SDS011;9093;52.062;4.508;2023-08-06T09:14:25;1.67;;;1.02;;
17935;SDS011;9093;52.062;4.508;2023-08-06T09:17:06;1.20;;;0.88;;
17935;SDS011;9093;52.062;4.508;2023-08-06T09:19:47;5.05;;;1.20;;
17935;SDS011;9093;52.062;4.508;2023-08-06T09:22:33;3.00;;;1.10;;
17935;SDS011;9093;52.062;4.508;2023-08-06T09:25:24;2.97;;;1.10;;
17935;SDS011;9093;52.062;4.508;2023-08-06T09:28:05;1.70;;;0.95;;
17935;SDS011;9093;52.062;4.508;2023-08-06T09:30:46;3.90;;;0.98;;
17935;SDS011;9093;52.062;4.508;2023-08-06T09:33:29;2.58;;;0.98;;
17935;SDS011;9093;52.062;4.508;2023-08-06T09:36:09;1.30;;;0.85;;
17935;SDS011;9093;52.062;4.508;2023-08-06T09:38:50;1.85;;;0.93;;
17935;SDS011;9093;52.062;4.508;2023-08-06T09:41:31;3.00;;;1.10;;
17935;SDS011;9093;52.062;4.508;2023-08-06T09:44:20;2.90;;;0.80;;
17935;SDS011;9093;52.062;4.508;2023-08-06T09:47:03;2.90;;;0.90;;
17935;SDS011;9093;52.062;4.508;2023-08-06T09:49:44;1.20;;;0.90;;
17935;SDS011;9093;52.062;4.508;2023-08-06T09:52:25;2.53;;;1.17;;
17935;SDS011;9093;52.062;4.508;2023-08-06T09:55:08;5.03;;;1.05;;
17935;SDS011;9093;52.062;4.508;2023-08-06T09:57:54;3.97;;;1.17;;
17935;SDS011;9093;52.062;4.508;2023-08-06T10:00:34;1.85;;;0.60;;
17935;SDS011;9093;52.062;4.508;2023-08-06T10:03:17;1.17;;;0.70;;
17935;SDS011;9093;52.062;4.508;2023-08-06T10:05:58;5.35;;;0.90;;
17935;SDS011;9093;52.062;4.508;2023-08-06T10:08:38;3.03;;;0.93;;
17935;SDS011;9093;52.062;4.508;2023-08-06T10:11:21;1.17;;;0.80;;
17935;SDS011;9093;52.062;4.508;2023-08-06T10:14:05;1.93;;;0.80;;
17935;SDS011;9093;52.062;4.508;2023-08-06T10:16:48;0.98;;;0.70;;
17935;SDS011;9093;52.062;4.508;2023-08-06T10:19:30;1.20;;;0.65;;
17935;SDS011;9093;52.062;4.508;2023-08-06T10:22:15;1.65;;;0.73;;
17935;SDS011;9093;52.062;4.508;2023-08-06T10:24:57;2.70;;;0.98;;
17935;SDS011;9093;52.062;4.508;2023-08-06T10:30:31;1.73;;;0.80;;
17935;SDS011;9093;52.062;4.508;2023-08-06T10:33:12;1.50;;;0.70;;
17935;SDS011;9093;52.062;4.508;2023-08-06T10:35:53;1.83;;;0.70;;
17935;SDS011;9093;52.062;4.508;2023-08-06T10:38:45;1.25;;;0.70;;
17935;SDS011;9093;52.062;4.508;2023-08-06T10:41:30;3.80;;;0.75;;
17935;SDS011;9093;52.062;4.508;2023-08-06T10:44:11;3.17;;;0.85;;
17935;SDS011;9093;52.062;4.508;2023-08-06T10:46:51;4.78;;;0.90;;
17935;SDS011;9093;52.062;4.508;2023-08-06T10:49:31;1.45;;;0.80;;
17935;SDS011;9093;52.062;4.508;2023-08-06T10:52:12;2.15;;;0.85;;
17935;SDS011;9093;52.062;4.508;2023-08-06T10:54:53;1.70;;;1.08;;
17935;SDS011;9093;52.062;4.508;2023-08-06T10:57:35;1.10;;;0.70;;
17935;SDS011;9093;52.062;4.508;2023-08-06T11:00:17;1.55;;;0.73;;
17935;SDS011;9093;52.062;4.508;2023-08-06T11:02:57;3.28;;;1.40;;
17935;SDS011;9093;52.062;4.508;2023-08-06T11:05:38;1.27;;;0.90;;
17935;SDS011;9093;52.062;4.508;2023-08-06T11:08:25;2.38;;;0.85;;
17935;SDS011;9093;52.062;4.508;2023-08-06T11:11:13;1.67;;;1.30;;
17935;SDS011;9093;52.062;4.508;2023-08-06T11:13:54;1.10;;;0.70;;
17935;SDS011;9093;52.062;4.508;2023-08-06T11:16:35;1.60;;;0.68;;
17935;SDS011;9093;52.062;4.508;2023-08-06T11:19:15;2.05;;;0.70;;
17935;SDS011;9093;52.062;4.508;2023-08-06T11:21:56;0.95;;;0.52;;
17935;SDS011;9093;52.062;4.508;2023-08-06T11:24:37;2.83;;;0.85;;
17935;SDS011;9093;52.062;4.508;2023-08-06T11:27:18;1.20;;;0.80;;
17935;SDS011;9093;52.062;4.508;2023-08-06T11:29:58;0.70;;;0.40;;
17935;SDS011;9093;52.062;4.508;2023-08-06T11:32:45;2.15;;;0.70;;
17935;SDS011;9093;52.062;4.508;2023-08-06T11:35:27;1.73;;;0.57;;
17935;SDS011;9093;52.062;4.508;2023-08-06T11:38:07;1.00;;;0.60;;
17935;SDS011;9093;52.062;4.508;2023-08-06T11:40:49;4.05;;;0.80;;
17935;SDS011;9093;52.062;4.508;2023-08-06T11:43:30;1.17;;;0.40;;
17935;SDS011;9093;52.062;4.508;2023-08-06T11:46:10;1.60;;;0.47;;
17935;SDS011;9093;52.062;4.508;2023-08-06T11:48:54;0.98;;;0.50;;
17935;SDS011;9093;52.062;4.508;2023-08-06T11:51:35;1.98;;;0.40;;
17935;SDS011;9093;52.062;4.508;2023-08-06T11:54:16;0.75;;;0.55;;
17935;SDS011;9093;52.062;4.508;2023-08-06T11:56:56;1.07;;;0.50;;
17935;SDS011;9093;52.062;4.508;2023-08-06T11:59:37;1.98;;;0.75;;
17935;SDS011;9093;52.062;4.508;2023-08-06T12:02:20;2.07;;;0.67;;
17935;SDS011;9093;52.062;4.508;2023-08-06T12:05:04;1.42;;;0.47;;
17935;SDS011;9093;52.062;4.508;2023-08-06T12:07:50;1.63;;;0.50;;
17935;SDS011;9093;52.062;4.508;2023-08-06T12:10:34;1.63;;;0.45;;
17935;SDS011;9093;52.062;4.508;2023-08-06T12:13:14;0.73;;;0.50;;
17935;SDS011;9093;52.062;4.508;2023-08-06T12:24:20;1.80;;;0.30;;
17935;SDS011;9093;52.062;4.508;2023-08-06T12:27:01;3.42;;;0.40;;
17935;SDS011;9093;52.062;4.508;2023-08-06T12:29:43;1.23;;;0.63;;
17935;SDS011;9093;52.062;4.508;2023-08-06T12:32:24;1.08;;;0.30;;
17935;SDS011;9093;52.062;4.508;2023-08-06T12:35:04;3.42;;;0.40;;
17935;SDS011;9093;52.062;4.508;2023-08-06T12:37:47;0.65;;;0.50;;
17935;SDS011;9093;52.062;4.508;2023-08-06T12:40:27;0.50;;;0.30;;
17935;SDS011;9093;52.062;4.508;2023-08-06T12:43:07;1.45;;;0.55;;
17935;SDS011;9093;52.062;4.508;2023-08-06T12:45:48;1.13;;;0.50;;
17935;SDS011;9093;52.062;4.508;2023-08-06T12:48:28;0.63;;;0.40;;
17935;SDS011;9093;52.062;4.508;2023-08-06T12:51:09;1.05;;;0.47;;
17935;SDS011;9093;52.062;4.508;2023-08-06T12:53:49;1.02;;;0.50;;
17935;SDS011;9093;52.062;4.508;2023-08-06T12:56:29;1.10;;;0.38;;
17935;SDS011;9093;52.062;4.508;2023-08-06T12:59:10;1.80;;;0.40;;
17935;SDS011;9093;52.062;4.508;2023-08-06T13:01:50;0.70;;;0.32;;
17935;SDS011;9093;52.062;4.508;2023-08-06T13:04:30;2.23;;;0.53;;
17935;SDS011;9093;52.062;4.508;2023-08-06T13:07:11;1.50;;;0.50;;
17935;SDS011;9093;52.062;4.508;2023-08-06T13:09:51;1.85;;;0.50;;
17935;SDS011;9093;52.062;4.508;2023-08-06T13:12:32;5.72;;;0.60;;
17935;SDS011;9093;52.062;4.508;2023-08-06T13:15:12;1.95;;;0.57;;
17935;SDS011;9093;52.062;4.508;2023-08-06T13:17:54;1.05;;;0.52;;
17935;SDS011;9093;52.062;4.508;2023-08-06T13:20:37;3.17;;;0.68;;
17935;SDS011;9093;52.062;4.508;2023-08-06T13:23:20;1.20;;;0.50;;
17935;SDS011;9093;52.062;4.508;2023-08-06T13:26:01;1.10;;;0.63;;
17935;SDS011;9093;52.062;4.508;2023-08-06T13:28:41;1.15;;;0.52;;
17935;SDS011;9093;52.062;4.508;2023-08-06T13:31:21;1.17;;;0.50;;
17935;SDS011;9093;52.062;4.508;2023-08-06T13:34:02;2.30;;;0.88;;
17935;SDS011;9093;52.062;4.508;2023-08-06T13:36:42;3.95;;;0.63;;
17935;SDS011;9093;52.062;4.508;2023-08-06T13:39:23;4.30;;;0.50;;
17935;SDS011;9093;52.062;4.508;2023-08-06T13:42:03;3.38;;;0.60;;
17935;SDS011;9093;52.062;4.508;2023-08-06T13:44:43;4.68;;;0.80;;
17935;SDS011;9093;52.062;4.508;2023-08-06T13:47:24;5.90;;;0.73;;
17935;SDS011;9093;52.062;4.508;2023-08-06T13:50:04;4.13;;;0.77;;
17935;SDS011;9093;52.062;4.508;2023-08-06T13:52:45;6.97;;;0.80;;
17935;SDS011;9093;52.062;4.508;2023-08-06T13:55:25;2.67;;;1.10;;
17935;SDS011;9093;52.062;4.508;2023-08-06T13:58:06;5.60;;;0.50;;
17935;SDS011;9093;52.062;4.508;2023-08-06T14:00:46;1.73;;;0.68;;
17935;SDS011;9093;52.062;4.508;2023-08-06T14:03:27;1.38;;;0.40;;
17935;SDS011;9093;52.062;4.508;2023-08-06T14:06:07;0.75;;;0.25;;
17935;SDS011;9093;52.062;4.508;2023-08-06T14:08:47;0.95;;;0.38;;
17935;SDS011;9093;52.062;4.508;2023-08-06T14:11:28;1.35;;;0.60;;
17935;SDS011;9093;52.062;4.508;2023-08-06T14:14:08;3.35;;;0.52;;
17935;SDS011;9093;52.062;4.508;2023-08-06T14:16:48;3.43;;;0.70;;
17935;SDS011;9093;52.062;4.508;2023-08-06T14:19:29;2.45;;;0.50;;
17935;SDS011;9093;52.062;4.508;2023-08-06T14:22:09;2.00;;;0.70;;
17935;SDS011;9093;52.062;4.508;2023-08-06T14:24:50;2.15;;;0.30;;
17935;SDS011;9093;52.062;4.508;2023-08-06T14:27:30;2.08;;;0.70;;
17935;SDS011;9093;52.062;4.508;2023-08-06T14:30:12;2.13;;;0.52;;
17935;SDS011;9093;52.062;4.508;2023-08-06T14:32:53;5.32;;;1.00;;
17935;SDS011;9093;52.062;4.508;2023-08-06T14:35:33;3.85;;;0.40;;
17935;SDS011;9093;52.062;4.508;2023-08-06T14:38:13;1.33;;;0.68;;
17935;SDS011;9093;52.062;4.508;2023-08-06T14:40:54;4.80;;;0.93;;
17935;SDS011;9093;52.062;4.508;2023-08-06T14:43:34;0.75;;;0.45;;
17935;SDS011;9093;52.062;4.508;2023-08-06T14:46:15;2.72;;;0.75;;
17935;SDS011;9093;52.062;4.508;2023-08-06T14:48:55;2.47;;;0.73;;
17935;SDS011;9093;52.062;4.508;2023-08-06T14:51:35;4.18;;;0.70;;
17935;SDS011;9093;52.062;4.508;2023-08-06T14:54:16;1.38;;;0.47;;
17935;SDS011;9093;52.062;4.508;2023-08-06T14:56:56;7.25;;;0.93;;
17935;SDS011;9093;52.062;4.508;2023-08-06T14:59:36;5.43;;;0.65;;
17935;SDS011;9093;52.062;4.508;2023-08-06T15:02:17;2.35;;;0.75;;
17935;SDS011;9093;52.062;4.508;2023-08-06T15:04:58;2.95;;;0.43;;
17935;SDS011;9093;52.062;4.508;2023-08-06T15:07:38;3.03;;;1.10;;
17935;SDS011;9093;52.062;4.508;2023-08-06T15:10:19;2.85;;;0.65;;
17935;SDS011;9093;52.062;4.508;2023-08-06T15:12:59;5.03;;;1.23;;
17935;SDS011;9093;52.062;4.508;2023-08-06T15:15:39;6.80;;;0.70;;
17935;SDS011;9093;52.062;4.508;2023-08-06T15:18:22;6.05;;;1.00;;
17935;SDS011;9093;52.062;4.508;2023-08-06T15:21:02;11.75;;;1.25;;
17935;SDS011;9093;52.062;4.508;2023-08-06T15:23:43;2.95;;;0.75;;
17935;SDS011;9093;52.062;4.508;2023-08-06T15:26:23;4.10;;;1.02;;
17935;SDS011;9093;52.062;4.508;2023-08-06T15:29:03;11.57;;;1.05;;
17935;SDS011;9093;52.062;4.508;2023-08-06T15:31:44;1.35;;;0.88;;
17935;SDS011;9093;52.062;4.508;2023-08-06T15:34:25;3.03;;;0.90;;
17935;SDS011;9093;52.062;4.508;2023-08-06T15:37:05;5.95;;;0.80;;
17935;SDS011;9093;52.062;4.508;2023-08-06T15:39:45;8.50;;;1.17;;
17935;SDS011;9093;52.062;4.508;2023-08-06T15:42:26;2.20;;;0.65;;
17935;SDS011;9093;52.062;4.508;2023-08-06T15:45:06;3.05;;;0.85;;
17935;SDS011;9093;52.062;4.508;2023-08-06T15:47:47;5.93;;;1.58;;
17935;SDS011;9093;52.062;4.508;2023-08-06T15:50:27;3.80;;;0.98;;
17935;SDS011;9093;52.062;4.508;2023-08-06T15:53:08;4.50;;;1.02;;
17935;SDS011;9093;52.062;4.508;2023-08-06T15:55:49;6.85;;;1.10;;
17935;SDS011;9093;52.062;4.508;2023-08-06T15:58:30;2.45;;;0.73;;
17935;SDS011;9093;52.062;4.508;2023-08-06T16:01:11;5.95;;;0.90;;
17935;SDS011;9093;52.062;4.508;2023-08-06T16:03:54;4.40;;;0.95;;
17935;SDS011;9093;52.062;4.508;2023-08-06T16:06:34;12.23;;;1.20;;
17935;SDS011;9093;52.062;4.508;2023-08-06T16:09:14;6.13;;;1.10;;
17935;SDS011;9093;52.062;4.508;2023-08-06T16:11:55;4.07;;;0.70;;
17935;SDS011;9093;52.062;4.508;2023-08-06T16:14:35;3.65;;;0.60;;
17935;SDS011;9093;52.062;4.508;2023-08-06T16:17:16;5.95;;;0.80;;
17935;SDS011;9093;52.062;4.508;2023-08-06T16:19:57;8.38;;;1.10;;
17935;SDS011;9093;52.062;4.508;2023-08-06T16:22:41;6.60;;;0.90;;
17935;SDS011;9093;52.062;4.508;2023-08-06T16:25:21;5.05;;;1.10;;
17935;SDS011;9093;52.062;4.508;2023-08-06T16:28:02;4.75;;;1.10;;
17935;SDS011;9093;52.062;4.508;2023-08-06T16:30:45;4.50;;;0.85;;
17935;SDS011;9093;52.062;4.508;2023-08-06T16:33:26;2.92;;;0.98;;
17935;SDS011;9093;52.062;4.508;2023-08-06T16:36:08;2.58;;;0.80;;
17935;SDS011;9093;52.062;4.508;2023-08-06T16:38:48;5.53;;;0.70;;
17935;SDS011;9093;52.062;4.508;2023-08-06T16:41:29;2.45;;;0.65;;